Time;durP1;ratioP1;P1;durP2;ratioP2;P2;SDS_P1;SDS_P2;PMS_P1;PMS_P2;Temp;Humidity;BMP_temperature;BMP_pressure;BME280_temperature;BME280_humidity;BME280_pressure;Samples;Min_cycle;Max_cycle;Signal;HPM_P1;HPM_P2
2022/06/02 00:02:29;;;;;;;8.57;2.53;;;11.80;99.10;;;12.39;100.00;98333.78;4959358;28;20890;-82
2022/06/02 00:05:17;;;;;;;2.60;2.00;;;11.80;99.20;;;12.38;100.00;98334.81;4957381;28;20461;-83
2022/06/02 00:08:05;;;;;;;7.47;1.83;;;11.70;99.10;;;12.25;100.00;98342.56;4960865;28;20464;-83
2022/06/02 00:10:56;;;;;;;2.07;1.87;;;11.70;99.30;;;12.31;100.00;98347.06;4958090;28;20553;-83
2022/06/02 00:13:36;;;;;;;4.00;2.27;;;11.60;99.70;;;12.32;100.00;98348.66;4961466;28;20464;-83
2022/06/02 00:16:13;;;;;;;2.73;2.20;;;11.50;99.70;;;12.37;100.00;98351.53;4965369;28;20469;-83
2022/06/02 00:18:51;;;;;;;4.30;2.20;;;11.50;99.80;;;12.31;100.00;98347.06;4960249;28;20471;-83
2022/06/02 00:21:34;;;;;;;5.23;2.47;;;11.50;99.50;;;12.23;100.00;98352.44;4958681;28;20532;-83
2022/06/02 00:24:15;;;;;;;4.43;2.00;;;11.50;99.80;;;12.27;100.00;98356.31;4960936;28;20492;-83
2022/06/02 00:26:58;;;;;;;9.30;2.53;;;11.30;99.90;;;12.19;100.00;98353.81;4962068;28;20945;-83
2022/06/02 00:29:39;;;;;;;3.53;2.07;;;11.40;99.80;;;12.17;100.00;98355.00;4962566;28;20448;-83
2022/06/02 00:32:18;;;;;;;2.70;1.90;;;11.30;99.90;;;12.08;100.00;98352.50;4959380;28;20450;-83
2022/06/02 00:34:57;;;;;;;2.47;1.93;;;11.30;99.80;;;12.09;100.00;98358.56;4961643;28;20455;-82
2022/06/02 00:37:52;;;;;;;3.13;1.87;;;11.30;99.80;;;12.03;100.00;98354.09;4960856;28;20468;-83
2022/06/02 00:40:26;;;;;;;3.10;2.13;;;11.30;99.70;;;11.99;100.00;98363.31;4958393;28;20469;-82
2022/06/02 00:43:52;;;;;;;2.70;2.13;;;11.20;99.90;;;11.96;100.00;98353.22;4961074;28;20476;-83
2022/06/02 00:46:50;;;;;;;2.10;1.90;;;11.10;99.90;;;11.85;100.00;98351.09;4958379;28;20969;-82
2022/06/02 00:49:32;;;;;;;3.60;2.00;;;11.00;99.90;;;11.86;100.00;98363.22;4958556;28;21469;-84
2022/06/02 00:52:24;;;;;;;3.20;1.90;;;11.00;99.90;;;11.90;100.00;98367.91;4958814;28;20900;-83
2022/06/02 00:58:24;;;;;;;2.40;2.20;;;10.90;99.90;;;11.78;100.00;98365.94;4959505;28;20468;-83
2022/06/02 01:01:03;;;;;;;7.13;2.13;;;10.90;99.90;;;11.69;100.00;98367.84;4956417;28;20971;-82
2022/06/02 01:03:43;;;;;;;2.30;2.10;;;10.90;99.90;;;11.61;100.00;98368.78;4959473;28;20587;-83
2022/06/02 01:06:47;;;;;;;2.87;2.10;;;10.80;99.90;;;11.54;100.00;98365.28;4959082;28;20895;-82
2022/06/02 01:09:43;;;;;;;3.70;2.10;;;10.70;99.90;;;11.48;100.00;98368.63;4961400;28;20469;-83
2022/06/02 01:12:35;;;;;;;2.53;1.77;;;10.70;99.90;;;11.47;100.00;98372.25;4957651;28;20461;-83
2022/06/02 01:15:20;;;;;;;4.13;2.03;;;10.60;99.90;;;11.42;100.00;98377.22;4959076;28;20512;-82
2022/06/02 01:18:15;;;;;;;2.53;2.30;;;10.60;99.90;;;11.40;100.00;98367.91;4959664;28;20472;-83
2022/06/02 01:21:09;;;;;;;2.30;1.90;;;10.60;99.90;;;11.30;100.00;98370.84;4961573;28;20450;-83
2022/06/02 01:24:20;;;;;;;2.63;2.20;;;10.60;99.90;;;11.27;100.00;98376.44;4956212;28;20544;-83
2022/06/02 01:27:36;;;;;;;2.50;2.13;;;10.40;99.90;;;11.15;100.00;98369.22;4958744;28;20967;-82
2022/06/02 01:30:48;;;;;;;2.10;1.90;;;10.40;99.90;;;11.10;100.00;98372.41;4961429;28;20453;-83
2022/06/02 01:33:34;;;;;;;3.60;2.30;;;10.30;99.90;;;11.14;100.00;98368.44;4956716;28;20466;-83
2022/06/02 01:36:20;;;;;;;2.50;2.30;;;10.30;99.90;;;11.15;100.00;98367.41;4955257;28;20531;-83
2022/06/02 01:39:09;;;;;;;5.83;2.13;;;10.30;99.90;;;11.10;100.00;98369.78;4959785;28;21010;-83
2022/06/02 01:41:57;;;;;;;2.10;1.83;;;10.30;99.90;;;11.09;100.00;98376.00;4961353;28;20461;-83
2022/06/02 01:44:39;;;;;;;2.50;2.30;;;10.20;99.90;;;11.05;100.00;98372.13;4961015;28;20504;-83
2022/06/02 01:47:22;;;;;;;3.97;2.33;;;10.20;99.90;;;10.97;100.00;98378.25;4956966;28;20476;-83
2022/06/02 01:50:12;;;;;;;4.33;2.70;;;10.10;99.90;;;10.93;100.00;98376.22;4958091;28;20468;-83
2022/06/02 01:52:59;;;;;;;3.30;2.03;;;10.10;99.90;;;10.91;100.00;98375.56;4957875;28;20467;-82
2022/06/02 01:56:15;;;;;;;4.60;2.40;;;10.10;99.90;;;10.82;100.00;98379.28;4958571;28;21573;-83
2022/06/02 01:59:08;;;;;;;2.97;2.47;;;10.10;99.90;;;10.76;100.00;98377.38;4924761;28;20560;-83
2022/06/02 02:01:55;;;;;;;4.53;2.10;;;10.00;99.90;;;10.76;100.00;98385.22;4946913;28;20492;-83
2022/06/02 02:05:15;;;;;;;3.33;2.13;;;10.00;99.90;;;10.75;100.00;98379.19;4959585;28;20535;-83
2022/06/02 02:08:09;;;;;;;6.43;2.40;;;9.90;99.90;;;10.74;100.00;98384.56;4961467;28;20452;-83
2022/06/02 02:10:58;;;;;;;4.70;2.50;;;9.90;99.90;;;10.67;100.00;98379.25;4964441;28;20804;-83
2022/06/02 02:13:56;;;;;;;2.43;2.13;;;9.90;99.90;;;10.59;100.00;98390.59;4964692;28;20475;-83
2022/06/02 02:16:42;;;;;;;4.53;2.23;;;9.90;99.90;;;10.58;100.00;98393.41;4964319;28;20442;-83
2022/06/02 02:19:51;;;;;;;3.47;2.47;;;9.80;99.90;;;10.59;100.00;98387.97;4961795;28;20484;-83
2022/06/02 02:22:36;;;;;;;2.90;2.47;;;9.80;99.90;;;10.56;100.00;98384.91;4963363;28;20454;-83
2022/06/02 02:25:17;;;;;;;4.93;2.50;;;9.70;99.90;;;10.51;100.00;98389.88;4963945;28;20488;-83
2022/06/02 02:28:03;;;;;;;3.50;2.60;;;9.70;99.90;;;10.43;100.00;98397.78;4964255;28;20792;-83
2022/06/02 02:30:51;;;;;;;2.67;2.07;;;9.70;99.90;;;10.40;100.00;98401.56;4965377;28;20471;-83
2022/06/02 02:33:37;;;;;;;2.67;2.30;;;9.60;99.90;;;10.32;100.00;98399.03;4961585;28;20441;-83
2022/06/02 02:36:21;;;;;;;2.83;2.17;;;9.70;99.90;;;10.34;100.00;98406.69;4949495;28;20450;-83
2022/06/02 02:39:03;;;;;;;2.87;2.60;;;9.60;99.90;;;10.29;100.00;98407.22;4962899;28;20547;-82
2022/06/02 02:41:47;;;;;;;4.23;2.67;;;9.60;99.90;;;10.34;100.00;98401.47;4962173;28;20796;-82
2022/06/02 02:44:30;;;;;;;2.53;2.30;;;9.60;99.90;;;10.33;100.00;98412.91;4964891;28;20481;-83
2022/06/02 02:47:12;;;;;;;2.40;2.20;;;9.50;99.90;;;10.27;100.00;98405.78;4964136;28;20456;-83
2022/06/02 02:49:50;;;;;;;4.60;2.40;;;9.50;99.90;;;10.26;100.00;98414.59;4964784;28;20458;-83
2022/06/02 02:52:36;;;;;;;6.67;2.30;;;9.40;99.90;;;10.35;100.00;98413.53;4961809;28;20466;-84
2022/06/02 02:55:19;;;;;;;2.30;2.10;;;9.40;99.90;;;10.29;100.00;98415.06;4965506;28;20951;-84
2022/06/02 02:58:02;;;;;;;2.77;2.43;;;9.40;99.90;;;10.23;100.00;98415.78;4963663;28;20444;-83
2022/06/02 03:00:42;;;;;;;4.77;2.50;;;9.40;99.90;;;10.25;100.00;98419.00;4966041;28;20445;-83
2022/06/02 03:03:22;;;;;;;3.17;2.20;;;9.40;99.90;;;10.19;100.00;98413.69;4967006;28;20480;-84
2022/06/02 03:06:20;;;;;;;3.60;2.33;;;9.40;99.90;;;10.22;100.00;98416.75;4961656;28;20489;-84
2022/06/02 03:09:03;;;;;;;3.37;2.30;;;9.30;99.90;;;10.09;100.00;98424.34;4960753;28;20475;-83
2022/06/02 03:12:18;;;;;;;3.20;2.47;;;9.40;99.90;;;10.03;100.00;98422.44;4962146;28;20537;-84
2022/06/02 03:15:15;;;;;;;4.23;2.80;;;9.30;99.90;;;10.06;100.00;98425.50;4960025;28;20519;-83
2022/06/02 03:18:08;;;;;;;3.10;2.50;;;9.20;99.90;;;10.03;100.00;98431.06;4962402;28;20468;-84
2022/06/02 03:20:56;;;;;;;2.73;2.53;;;9.20;99.90;;;9.97;100.00;98425.72;4960354;28;20591;-87
2022/06/02 03:24:27;;;;;;;3.80;2.77;;;9.20;99.90;;;9.98;100.00;98435.19;4961388;28;20512;-84
2022/06/02 03:27:25;;;;;;;3.00;2.70;;;9.20;99.90;;;9.90;100.00;98437.84;4960597;28;20484;-75
2022/06/02 03:30:33;;;;;;;3.20;1.90;;;9.10;99.90;;;9.94;100.00;98446.97;4962244;28;20446;-76
2022/06/02 03:33:26;;;;;;;2.30;2.10;;;9.10;99.90;;;9.87;100.00;98443.41;4962704;28;20460;-76
2022/06/02 03:36:12;;;;;;;22.03;10.20;;;9.10;99.90;;;9.83;100.00;98444.75;4960663;28;20473;-75
2022/06/02 03:39:04;;;;;;;3.50;2.70;;;9.10;99.90;;;9.80;100.00;98451.13;4956324;28;20485;-76
2022/06/02 03:42:16;;;;;;;2.57;2.10;;;9.00;99.90;;;9.90;100.00;98458.75;4959940;28;20504;-76
2022/06/02 03:45:11;;;;;;;2.40;2.13;;;8.90;99.90;;;9.92;100.00;98456.78;4961428;28;20542;-76
2022/06/02 03:48:33;;;;;;;3.50;2.50;;;8.90;99.90;;;9.92;100.00;98456.78;4962455;28;20964;-75
2022/06/02 03:51:22;;;;;;;2.93;2.33;;;8.90;99.90;;;9.96;100.00;98458.84;4961423;28;20445;-76
2022/06/02 03:54:18;;;;;;;5.70;2.80;;;8.90;99.90;;;9.86;100.00;98460.06;4961112;28;20937;-76
2022/06/02 03:57:18;;;;;;;4.93;2.47;;;9.00;99.90;;;9.76;100.00;98459.47;4961475;28;20437;-78
2022/06/02 04:00:11;;;;;;;4.00;2.33;;;8.90;99.90;;;9.76;100.00;98465.50;4957466;28;20862;-76
2022/06/02 04:02:48;;;;;;;2.97;2.50;;;8.90;99.90;;;9.77;100.00;98471.56;4960719;28;20457;-75
2022/06/02 04:05:54;;;;;;;4.23;2.60;;;9.00;99.90;;;9.63;100.00;98465.25;4961684;28;20489;-74
2022/06/02 04:09:08;;;;;;;2.50;2.30;;;8.90;99.90;;;9.61;100.00;98460.19;4940891;28;20547;-76
2022/06/02 04:15:23;;;;;;;11.93;6.00;;;8.80;99.90;;;9.64;100.00;98468.69;4949850;28;20536;-76
2022/06/02 04:18:09;;;;;;;4.93;3.30;;;8.80;99.90;;;9.64;100.00;98476.53;4957347;28;20515;-75
2022/06/02 04:21:05;;;;;;;3.23;2.43;;;8.80;99.90;;;9.64;100.00;98463.47;4959924;28;20552;-79
2022/06/02 04:24:19;;;;;;;3.53;2.40;;;8.80;99.90;;;9.57;100.00;98469.38;4959114;28;20461;-76
2022/06/02 04:27:05;;;;;;;3.53;2.37;;;8.80;99.90;;;9.66;100.00;98470.13;4957549;28;20472;-76
2022/06/02 04:29:55;;;;;;;4.87;2.67;;;8.80;99.90;;;9.72;100.00;98471.28;4960373;28;20503;-75
2022/06/02 04:32:40;;;;;;;6.83;2.80;;;8.80;99.90;;;9.76;100.00;98470.72;4960292;28;20457;-75
2022/06/02 04:35:27;;;;;;;5.40;2.73;;;8.60;99.90;;;9.78;100.00;98468.78;4959740;28;20490;-75
2022/06/02 04:38:13;;;;;;;3.37;2.50;;;8.70;99.90;;;9.81;100.00;98467.63;4958944;28;20550;-75
2022/06/02 04:41:01;;;;;;;4.73;2.50;;;8.80;99.90;;;9.83;100.00;98469.06;4961068;28;21000;-76
2022/06/02 04:43:45;;;;;;;3.97;2.77;;;8.90;99.90;;;9.90;100.00;98466.56;4961966;28;20440;-75
2022/06/02 04:46:35;;;;;;;3.43;2.80;;;8.80;99.90;;;9.95;100.00;98469.50;4960635;28;21031;-75
2022/06/02 04:49:21;;;;;;;7.37;3.20;;;8.90;99.90;;;10.00;100.00;98464.56;4960025;28;20444;-75
2022/06/02 04:52:04;;;;;;;5.23;2.77;;;9.00;99.90;;;10.02;100.00;98460.81;4958794;28;20465;-75
2022/06/02 04:54:46;;;;;;;3.97;2.70;;;9.00;99.90;;;10.03;100.00;98467.63;4958920;28;20449;-75
2022/06/02 04:57:28;;;;;;;4.37;2.50;;;9.00;99.90;;;10.07;100.00;98465.50;4960486;28;20496;-75
2022/06/02 05:00:06;;;;;;;5.73;2.93;;;9.10;99.90;;;10.11;100.00;98470.22;4960629;28;21018;-76
2022/06/02 05:02:52;;;;;;;2.63;2.27;;;9.10;99.90;;;10.16;100.00;98464.50;4958688;28;21015;-75
2022/06/02 05:05:38;;;;;;;7.23;2.93;;;9.20;99.90;;;10.21;100.00;98463.97;4959553;28;20477;-75
2022/06/02 05:08:51;;;;;;;4.10;3.03;;;9.20;99.90;;;10.24;100.00;98468.88;4956698;28;20468;-76
2022/06/02 05:11:51;;;;;;;3.63;3.10;;;9.20;99.90;;;10.26;100.00;98454.63;4957199;28;20470;-75
2022/06/02 05:14:33;;;;;;;4.97;3.20;;;9.30;99.90;;;10.31;100.00;98454.09;4957489;28;20464;-75
2022/06/02 05:18:02;;;;;;;2.73;2.37;;;9.30;99.90;;;10.38;100.00;98449.78;4960304;28;20441;-75
2022/06/02 05:21:03;;;;;;;3.60;2.87;;;9.40;99.90;;;10.43;100.00;98461.34;4949964;28;20453;-76
2022/06/02 05:24:06;;;;;;;4.03;3.40;;;9.50;99.90;;;10.48;100.00;98464.22;4956805;28;20467;-76
2022/06/02 05:27:25;;;;;;;3.33;2.70;;;9.50;99.90;;;10.52;100.00;98469.94;4960921;28;20548;-76
2022/06/02 05:30:26;;;;;;;3.80;3.13;;;9.60;99.90;;;10.59;100.00;98476.91;4961195;28;21047;-76
2022/06/02 05:33:46;;;;;;;2.60;2.37;;;9.60;99.90;;;10.64;100.00;98479.00;4961486;28;20463;-76
2022/06/02 05:36:41;;;;;;;4.50;3.13;;;9.70;99.90;;;10.69;100.00;98488.94;4961778;28;20447;-75
2022/06/02 05:39:34;;;;;;;3.90;3.30;;;9.80;99.90;;;10.72;100.00;98488.56;4960532;28;20481;-76
2022/06/02 05:42:20;;;;;;;3.47;3.17;;;9.80;99.90;;;10.78;100.00;98485.25;4962665;28;20465;-76
2022/06/02 05:45:12;;;;;;;3.73;2.83;;;9.90;99.90;;;10.82;100.00;98494.38;4964591;28;20470;-76
2022/06/02 05:48:15;;;;;;;3.70;2.83;;;9.90;99.90;;;10.88;100.00;98502.31;4965776;28;20445;-76
2022/06/02 05:50:59;;;;;;;4.40;3.33;;;9.90;99.90;;;10.95;100.00;98505.84;4967395;28;20866;-75
2022/06/02 05:53:50;;;;;;;3.30;2.80;;;9.90;99.90;;;11.01;100.00;98502.50;4965416;28;20524;-76
2022/06/02 05:56:53;;;;;;;5.70;2.97;;;10.00;99.90;;;11.07;100.00;98501.78;4964503;28;21112;-76
2022/06/02 05:59:51;;;;;;;4.33;2.93;;;10.10;99.90;;;11.15;100.00;98492.25;4966590;28;20484;-76
2022/06/02 06:02:53;;;;;;;7.60;3.83;;;10.10;99.90;;;11.19;100.00;98491.72;4963216;28;20469;-76
2022/06/02 06:05:30;;;;;;;4.83;3.33;;;10.20;99.90;;;11.27;100.00;98494.25;4964944;28;20564;-76
2022/06/02 06:08:31;;;;;;;3.20;2.90;;;10.30;99.90;;;11.35;100.00;98490.72;4966479;28;20456;-76
2022/06/02 06:11:25;;;;;;;3.10;2.80;;;10.30;99.90;;;11.40;100.00;98494.44;4965508;28;21054;-76
2022/06/02 06:14:27;;;;;;;4.23;3.47;;;10.40;99.90;;;11.48;100.00;98491.72;4966056;28;20453;-76
2022/06/02 06:17:11;;;;;;;5.33;3.77;;;10.50;99.90;;;11.55;100.00;98492.63;4961978;28;20461;-76
2022/06/02 06:20:21;;;;;;;5.70;3.57;;;10.60;99.90;;;11.60;100.00;98490.25;4965410;28;20520;-76
2022/06/02 06:23:17;;;;;;;4.53;3.80;;;10.70;99.90;;;11.66;100.00;98491.34;4964084;28;20455;-76
2022/06/02 06:26:16;;;;;;;5.83;3.73;;;10.70;99.90;;;11.74;100.00;98483.41;4959878;28;20532;-76
2022/06/02 06:29:13;;;;;;;4.93;3.73;;;10.80;99.90;;;11.81;100.00;98486.91;4958806;28;20949;-76
2022/06/02 06:32:02;;;;;;;4.50;3.60;;;10.90;99.90;;;11.89;100.00;98483.38;4960109;28;20595;-76
2022/06/02 06:34:47;;;;;;;3.40;3.03;;;11.00;99.90;;;11.95;100.00;98487.88;4960001;28;20456;-76
2022/06/02 06:37:58;;;;;;;6.30;4.30;;;11.00;99.90;;;12.02;100.00;98483.50;4959811;28;20485;-76
2022/06/02 06:41:05;;;;;;;5.40;4.17;;;11.10;99.90;;;12.08;100.00;98478.34;4958897;28;20891;-76
2022/06/02 06:44:02;;;;;;;6.70;4.00;;;11.20;99.90;;;12.18;100.00;98485.09;4959613;28;20818;-76
2022/06/02 06:46:42;;;;;;;6.20;4.43;;;11.30;99.90;;;12.26;100.00;98488.41;4963913;28;20886;-76
2022/06/02 06:49:21;;;;;;;8.33;5.10;;;11.40;99.90;;;12.31;100.00;98488.69;4965605;28;20438;-76
2022/06/02 06:52:15;;;;;;;8.17;5.03;;;11.40;99.90;;;12.39;100.00;98501.66;4964195;28;20441;-76
2022/06/02 06:54:57;;;;;;;7.37;5.17;;;11.50;99.90;;;12.48;100.00;98504.97;4962499;28;20446;-76
2022/06/02 06:57:39;;;;;;;9.97;5.80;;;11.60;99.90;;;12.56;100.00;98502.22;4964729;28;20460;-76
2022/06/02 07:00:21;;;;;;;8.60;5.47;;;11.80;99.90;;;12.66;100.00;98497.47;4964850;28;20452;-76
2022/06/02 07:03:08;;;;;;;6.97;4.83;;;11.90;99.90;;;12.74;100.00;98493.91;4965398;28;20529;-76
2022/06/02 07:05:47;;;;;;;16.63;7.13;;;12.00;99.90;;;12.84;100.00;98494.38;4964020;28;20452;-76
2022/06/02 07:08:30;;;;;;;5.77;4.43;;;12.10;99.90;;;12.90;100.00;98494.44;4964300;28;20456;-76
2022/06/02 07:12:50;;;;;;;6.60;5.80;;;12.10;99.90;;;12.99;100.00;98497.72;4962808;28;20450;-76
2022/06/02 07:14:13;;;;;;;8.50;5.57;;;12.20;99.90;;;13.08;100.00;98504.47;4963434;28;20457;-76
2022/06/02 07:16:55;;;;;;;8.43;5.37;;;12.30;99.90;;;13.16;100.00;98496.44;4964688;28;20456;-76
2022/06/02 07:19:44;;;;;;;8.37;5.30;;;12.40;99.90;;;13.24;100.00;98496.31;4965682;28;20457;-76
2022/06/02 07:22:31;;;;;;;8.47;6.10;;;12.60;99.90;;;13.36;100.00;98502.63;4963719;28;20441;-76
2022/06/02 07:25:14;;;;;;;7.23;5.90;;;12.70;99.90;;;13.45;100.00;98503.31;4962929;28;20544;-76
2022/06/02 07:27:59;;;;;;;12.23;6.40;;;12.80;99.70;;;13.53;100.00;98496.09;4963980;28;20500;-76
2022/06/02 07:30:51;;;;;;;12.03;5.90;;;12.90;99.20;;;13.61;99.41;98495.91;4965151;28;20457;-76
2022/06/02 07:33:58;;;;;;;9.73;7.17;;;13.00;99.10;;;13.68;95.35;98493.31;4964572;28;20438;-76
2022/06/02 07:36:59;;;;;;;9.40;6.40;;;13.10;98.40;;;13.78;94.08;98498.22;4964638;28;20449;-76
2022/06/02 07:40:16;;;;;;;7.93;5.70;;;13.20;98.20;;;13.87;91.05;98492.59;4963803;28;20461;-76
2022/06/02 07:43:35;;;;;;;9.57;6.10;;;13.30;97.40;;;13.96;89.80;98495.84;4964521;28;20457;-76
2022/06/02 07:46:31;;;;;;;4.87;3.73;;;13.40;96.80;;;14.06;87.27;98488.38;4959743;28;20498;-76
2022/06/02 07:49:37;;;;;;;5.77;4.47;;;13.40;96.10;;;14.15;82.31;98489.84;4960016;28;20458;-76
2022/06/02 07:52:20;;;;;;;6.20;4.43;;;13.60;95.70;;;14.26;80.55;98478.75;4959523;28;20841;-76
2022/06/02 07:55:03;;;;;;;6.67;3.90;;;13.70;94.60;;;14.34;80.42;98483.84;4960080;28;20464;-76
2022/06/02 07:57:59;;;;;;;7.93;4.10;;;13.80;95.10;;;14.46;79.24;98487.50;4962835;28;20441;-76
2022/06/02 08:00:35;;;;;;;8.80;4.23;;;13.90;94.70;;;14.54;79.21;98482.03;4964060;28;20465;-76
2022/06/02 08:04:04;;;;;;;6.60;4.50;;;14.00;94.70;;;14.67;76.84;98483.06;4962877;28;20512;-76
2022/06/02 08:06:47;;;;;;;10.23;3.80;;;14.10;94.30;;;14.77;75.25;98480.84;4962637;28;20496;-76
2022/06/02 08:09:54;;;;;;;5.00;3.40;;;14.30;93.90;;;14.85;73.39;98483.28;4962962;28;20460;-76
2022/06/02 08:12:40;;;;;;;5.93;3.50;;;14.40;93.40;;;14.93;71.50;98478.59;4962769;28;20553;-76
2022/06/02 08:15:42;;;;;;;6.37;3.80;;;14.40;93.00;;;15.05;73.59;98476.97;4962224;28;21031;-76
2022/06/02 08:18:31;;;;;;;4.83;3.60;;;14.60;93.60;;;15.12;72.97;98471.69;4962466;28;20460;-76
2022/06/02 08:21:18;;;;;;;6.47;3.40;;;14.60;93.50;;;15.16;72.09;98478.19;4963176;28;20460;-76
2022/06/02 08:24:44;;;;;;;3.63;2.87;;;14.70;93.20;;;15.22;73.44;98487.88;4961944;28;20520;-76
2022/06/02 08:28:00;;;;;;;5.97;3.13;;;14.70;93.70;;;15.25;71.06;98482.22;4961640;28;20499;-76
2022/06/02 08:30:44;;;;;;;6.43;3.33;;;14.60;92.40;;;15.32;71.47;98482.19;4958708;28;20472;-76
2022/06/02 08:33:51;;;;;;;4.00;2.67;;;14.70;93.40;;;15.40;73.24;98471.44;4963634;28;20533;-76
2022/06/02 08:36:30;;;;;;;4.43;2.77;;;14.70;93.90;;;15.44;74.22;98473.47;4957295;28;20448;-76
2022/06/02 08:39:51;;;;;;;8.47;2.80;;;14.80;94.00;;;15.49;72.84;98475.47;4963047;28;20500;-76
2022/06/02 08:42:50;;;;;;;3.63;2.70;;;14.90;93.60;;;15.56;73.22;98474.44;4963417;28;20459;-76
2022/06/02 08:46:07;;;;;;;4.40;2.60;;;14.90;93.90;;;15.65;72.12;98484.78;4963068;28;20939;-76
2022/06/02 08:49:22;;;;;;;5.73;2.47;;;15.00;93.80;;;15.70;71.15;98484.94;4955878;28;20491;-76
2022/06/02 08:52:48;;;;;;;4.20;2.67;;;15.00;93.00;;;15.75;70.62;98491.22;4961863;28;20485;-76
2022/06/02 08:56:07;;;;;;;5.27;2.43;;;15.10;93.20;;;15.83;71.44;98495.44;4963262;28;20449;-76
2022/06/02 08:59:32;;;;;;;3.90;2.77;;;15.20;93.40;;;15.92;71.68;98488.94;4957632;28;20875;-76
2022/06/02 09:02:47;;;;;;;5.17;2.97;;;15.30;93.50;;;16.01;72.70;98483.19;4957083;28;20452;-76
2022/06/02 09:06:25;;;;;;;4.67;2.50;;;15.40;93.80;;;16.14;73.38;98492.06;4946602;28;20453;-76
2022/06/02 09:09:54;;;;;;;3.53;3.23;;;15.50;93.90;;;16.24;72.78;98502.97;4960012;28;20452;-76
2022/06/02 09:13:14;;;;;;;6.57;3.30;;;15.60;93.70;;;16.29;72.04;98498.66;4959557;28;20448;-76
2022/06/02 09:16:36;;;;;;;4.00;3.00;;;15.70;93.60;;;16.39;71.46;98487.63;4961682;28;20514;-76
2022/06/02 09:19:35;;;;;;;3.40;3.10;;;15.80;93.30;;;16.44;69.71;98495.75;4905601;29;20458;-76
2022/06/02 09:22:33;;;;;;;5.50;2.30;;;15.80;92.90;;;16.52;68.00;98495.50;4963870;28;20538;-76
2022/06/02 09:25:29;;;;;;;3.10;2.60;;;16.00;92.60;;;16.59;65.99;98497.06;4963973;28;20521;-76
2022/06/02 09:28:49;;;;;;;5.40;2.80;;;16.10;92.10;;;16.60;63.43;98482.84;4963126;28;21448;-76
2022/06/02 09:31:59;;;;;;;9.53;2.43;;;16.10;91.30;;;16.65;61.71;98484.03;4961341;28;20468;-76
2022/06/02 09:34:55;;;;;;;3.97;2.03;;;16.20;90.70;;;16.67;60.99;98479.34;4963027;28;20532;-76
2022/06/02 09:38:44;;;;;;;2.87;2.30;;;16.20;90.40;;;16.74;60.79;98473.00;4962921;28;20483;-76
2022/06/02 09:41:48;;;;;;;2.50;2.10;;;16.30;90.60;;;16.74;60.70;98474.81;4963794;28;20928;-76
2022/06/02 09:44:32;;;;;;;2.90;1.90;;;16.30;90.50;;;16.77;59.47;98480.47;4962328;28;20512;-76
2022/06/02 09:47:53;;;;;;;1.90;1.70;;;16.30;90.00;;;16.87;59.76;98482.66;4963407;28;20564;-76
2022/06/02 09:51:01;;;;;;;3.23;1.80;;;16.40;90.30;;;16.86;58.03;98481.03;4961912;28;21116;-76
2022/06/02 09:53:56;;;;;;;7.53;1.77;;;16.40;88.90;;;16.96;59.47;98486.63;4956641;28;20501;-76
2022/06/02 10:00:13;;;;;;;2.87;1.60;;;16.50;89.70;;;17.14;57.49;98478.75;4961012;28;20576;-76
2022/06/02 10:03:05;;;;;;;1.73;1.60;;;16.70;88.90;;;17.26;55.90;98489.41;4961346;28;21144;-76
2022/06/02 10:06:30;;;;;;;2.20;1.60;;;16.80;87.90;;;17.24;53.03;98494.91;4960662;28;20832;-76
2022/06/02 10:09:22;;;;;;;1.70;1.50;;;16.80;85.00;;;17.28;54.70;98492.66;4958770;28;20500;-76
2022/06/02 10:12:54;;;;;;;2.93;1.50;;;16.80;87.30;;;17.32;56.04;98501.75;4957649;28;20458;-77
2022/06/02 10:15:17;;;;;;;4.17;1.53;;;16.90;88.10;;;17.34;54.76;98483.84;4958605;28;20465;-76
2022/06/02 10:18:07;;;;;;;1.87;1.53;;;16.90;86.70;;;17.36;55.92;98485.22;4964413;28;20576;-76
2022/06/02 10:21:14;;;;;;;3.03;1.57;;;17.00;88.10;;;17.44;56.36;98497.34;4964591;28;20445;-76
2022/06/02 10:24:35;;;;;;;1.83;1.40;;;17.00;88.40;;;17.48;55.91;98494.06;4964099;28;20454;-76
2022/06/02 10:27:59;;;;;;;3.63;1.67;;;17.00;88.30;;;17.54;55.94;98479.13;4964072;28;20461;-77
2022/06/02 10:31:35;;;;;;;3.87;1.70;;;17.10;88.30;;;17.56;56.37;98479.78;4952830;28;20466;-76
2022/06/02 10:34:49;;;;;;;4.93;1.63;;;17.10;88.60;;;17.59;56.79;98488.06;4955123;28;20457;-76
2022/06/02 10:37:54;;;;;;;3.93;1.73;;;17.10;88.80;;;17.62;56.78;98486.00;4965513;28;20484;-76
2022/06/02 10:41:06;;;;;;;5.53;1.97;;;17.00;88.70;;;17.70;56.82;98483.84;4965167;28;20453;-76
2022/06/02 10:44:08;;;;;;;2.87;1.60;;;17.00;88.60;;;17.79;56.84;98476.44;4964712;28;20995;-76
2022/06/02 10:47:47;;;;;;;5.23;2.20;;;17.20;89.60;;;17.86;55.73;98480.63;4964951;28;20942;-76
2022/06/02 10:50:42;;;;;;;2.07;1.50;;;17.30;88.20;;;17.90;54.11;98491.56;4941787;28;20556;-77
2022/06/02 10:54:03;;;;;;;2.17;1.67;;;17.30;86.20;;;17.87;52.62;98489.38;4964168;28;20457;-76
2022/06/02 10:57:36;;;;;;;2.20;1.60;;;17.30;84.30;;;17.85;51.22;98486.13;4959851;28;20857;-76
2022/06/02 11:00:25;;;;;;;2.03;1.30;;;17.30;83.50;;;17.92;52.17;98484.19;4964551;28;20457;-76
2022/06/02 11:03:58;;;;;;;4.33;1.30;;;17.30;85.00;;;18.01;52.83;98481.03;4963730;28;20437;-76
2022/06/02 11:07:42;;;;;;;1.83;1.07;;;17.40;85.00;;;18.07;52.21;98469.56;4950163;28;20461;-76
2022/06/02 11:10:51;;;;;;;2.23;1.33;;;17.40;83.90;;;18.18;51.21;98468.00;4966216;28;20543;-76
2022/06/02 11:14:31;;;;;;;2.07;1.30;;;17.60;84.20;;;18.21;50.29;98462.25;4964823;28;20470;-76
2022/06/02 11:17:41;;;;;;;5.77;1.40;;;17.70;82.90;;;18.28;50.96;98454.19;4928897;28;20461;-76
2022/06/02 11:20:56;;;;;;;8.80;1.60;;;17.70;84.00;;;18.32;51.72;98472.06;4957987;28;20483;-76
2022/06/02 11:24:02;;;;;;;3.63;1.50;;;17.80;84.60;;;18.35;49.15;98458.38;4958213;28;20503;-76
2022/06/02 11:27:52;;;;;;;1.87;1.50;;;17.90;82.00;;;18.40;48.29;98452.38;4958730;28;20539;-75
2022/06/02 11:31:10;;;;;;;1.57;1.27;;;17.90;82.10;;;18.41;48.49;98454.81;4840977;29;20478;-75
2022/06/02 11:34:17;;;;;;;1.60;1.23;;;17.90;81.00;;;18.40;48.09;98447.88;4960214;28;20450;-76
2022/06/02 11:37:40;;;;;;;1.67;1.33;;;17.90;80.40;;;18.45;49.26;98445.38;4948549;28;20580;-77
2022/06/02 11:41:07;;;;;;;1.53;1.40;;;18.00;82.40;;;18.47;48.82;98435.34;4957726;28;20446;-76
2022/06/02 11:43:59;;;;;;;3.67;1.10;;;18.00;81.00;;;18.58;48.51;98437.25;4928119;28;20460;-76
2022/06/02 11:47:26;;;;;;;7.40;2.13;;;18.10;82.00;;;18.54;47.50;98432.63;4958181;28;20481;-76
2022/06/02 11:50:45;;;;;;;3.13;1.63;;;18.10;80.40;;;18.56;48.15;98423.44;4952172;28;20629;-76
2022/06/02 11:53:51;;;;;;;1.83;1.23;;;18.00;81.00;;;18.57;45.95;98427.69;4961090;28;20456;-76
2022/06/02 11:56:41;;;;;;;2.07;1.20;;;18.10;78.80;;;18.66;46.29;98428.16;4961516;28;20448;-76
2022/06/02 11:59:52;;;;;;;2.03;1.10;;;18.10;79.30;;;18.69;44.87;98424.25;4961448;28;20457;-76
2022/06/02 12:03:06;;;;;;;1.73;1.10;;;18.20;77.50;;;18.62;44.18;98419.06;4962352;28;20961;-76
2022/06/02 12:06:39;;;;;;;1.10;0.90;;;18.20;76.60;;;18.73;46.02;98415.63;4964602;28;20454;-76
2022/06/02 12:09:56;;;;;;;2.30;1.57;;;18.20;79.00;;;18.75;46.29;98402.13;4963548;28;20933;-76
2022/06/02 12:12:58;;;;;;;2.03;1.13;;;18.30;79.30;;;18.83;46.54;98409.72;4962219;28;20458;-76
2022/06/02 12:16:23;;;;;;;1.63;1.30;;;18.30;79.90;;;18.85;45.64;98410.28;4963586;28;20538;-76
2022/06/02 12:19:30;;;;;;;1.80;1.10;;;18.40;78.70;;;18.89;45.33;98409.63;4884971;29;20469;-77
2022/06/02 12:22:16;;;;;;;1.73;1.23;;;18.40;78.40;;;18.91;44.04;98412.03;4947852;28;20564;-76
2022/06/02 12:25:28;;;;;;;2.90;1.10;;;18.40;76.30;;;18.91;43.92;98402.25;4962940;28;20450;-76
2022/06/02 12:28:50;;;;;;;1.70;1.33;;;18.50;76.40;;;19.03;46.64;98407.53;4904131;28;20559;-76
2022/06/02 12:31:57;;;;;;;1.50;1.40;;;18.60;80.00;;;19.04;45.48;98398.53;4963098;28;20461;-77
2022/06/02 12:35:19;;;;;;;1.60;1.27;;;18.60;78.50;;;19.07;45.60;98400.72;4963052;28;20473;-76
2022/06/02 12:38:51;;;;;;;1.23;1.00;;;18.60;79.20;;;19.13;45.03;98394.50;4963127;28;20470;-76
2022/06/02 12:42:27;;;;;;;1.20;1.00;;;18.60;77.40;;;19.18;43.86;98397.25;4935711;28;20457;-76